sensor_id;sensor_type;location;lat;lon;timestamp;P1;durP1;ratioP1;P2;durP2;ratioP2
24451;SDS011;13350;50.984;5.822;2023-02-26T00:01:29;7.35;;;1.90;;
24451;SDS011;13350;50.984;5.822;2023-02-26T00:03:59;5.78;;;1.80;;
24451;SDS011;13350;50.984;5.822;2023-02-26T00:06:32;7.22;;;2.05;;
24451;SDS011;13350;50.984;5.822;2023-02-26T00:09:00;4.15;;;1.83;;
24451;SDS011;13350;50.984;5.822;2023-02-26T00:11:28;8.13;;;2.05;;
24451;SDS011;13350;50.984;5.822;2023-02-26T00:13:55;5.07;;;1.88;;
24451;SDS011;13350;50.984;5.822;2023-02-26T00:16:25;3.40;;;1.77;;
24451;SDS011;13350;50.984;5.822;2023-02-26T00:18:56;4.45;;;1.85;;
24451;SDS011;13350;50.984;5.822;2023-02-26T00:21:25;5.72;;;1.98;;
24451;SDS011;13350;50.984;5.822;2023-02-26T00:23:54;4.78;;;1.77;;
24451;SDS011;13350;50.984;5.822;2023-02-26T00:26:22;7.32;;;2.50;;
24451;SDS011;13350;50.984;5.822;2023-02-26T00:28:52;4.30;;;2.10;;
24451;SDS011;13350;50.984;5.822;2023-02-26T00:31:19;4.78;;;2.00;;
24451;SDS011;13350;50.984;5.822;2023-02-26T00:33:49;6.30;;;1.98;;
24451;SDS011;13350;50.984;5.822;2023-02-26T00:36:20;5.43;;;2.30;;
24451;SDS011;13350;50.984;5.822;2023-02-26T00:38:53;3.35;;;1.63;;
24451;SDS011;13350;50.984;5.822;2023-02-26T00:41:32;7.68;;;2.67;;
24451;SDS011;13350;50.984;5.822;2023-02-26T00:44:00;5.20;;;1.75;;
24451;SDS011;13350;50.984;5.822;2023-02-26T00:46:29;9.52;;;2.63;;
24451;SDS011;13350;50.984;5.822;2023-02-26T00:49:07;4.45;;;1.60;;
24451;SDS011;13350;50.984;5.822;2023-02-26T00:51:46;6.30;;;2.10;;
24451;SDS011;13350;50.984;5.822;2023-02-26T00:54:16;7.05;;;2.10;;
24451;SDS011;13350;50.984;5.822;2023-02-26T00:56:46;7.40;;;1.88;;
24451;SDS011;13350;50.984;5.822;2023-02-26T00:59:32;4.80;;;1.58;;
24451;SDS011;13350;50.984;5.822;2023-02-26T01:01:59;7.03;;;2.28;;
24451;SDS011;13350;50.984;5.822;2023-02-26T01:04:26;5.00;;;2.05;;
24451;SDS011;13350;50.984;5.822;2023-02-26T01:06:56;4.43;;;2.15;;
24451;SDS011;13350;50.984;5.822;2023-02-26T01:09:24;6.72;;;1.65;;
24451;SDS011;13350;50.984;5.822;2023-02-26T01:11:53;7.03;;;1.75;;
24451;SDS011;13350;50.984;5.822;2023-02-26T01:14:26;4.80;;;1.48;;
24451;SDS011;13350;50.984;5.822;2023-02-26T01:16:55;3.00;;;1.55;;
24451;SDS011;13350;50.984;5.822;2023-02-26T01:19:28;7.93;;;2.33;;
24451;SDS011;13350;50.984;5.822;2023-02-26T01:22:07;6.55;;;2.08;;
24451;SDS011;13350;50.984;5.822;2023-02-26T01:24:38;6.10;;;2.97;;
24451;SDS011;13350;50.984;5.822;2023-02-26T01:27:06;3.95;;;1.70;;
24451;SDS011;13350;50.984;5.822;2023-02-26T01:29:33;7.53;;;2.35;;
24451;SDS011;13350;50.984;5.822;2023-02-26T01:32:02;6.90;;;2.20;;
24451;SDS011;13350;50.984;5.822;2023-02-26T01:34:34;7.90;;;1.80;;
24451;SDS011;13350;50.984;5.822;2023-02-26T01:37:11;4.75;;;1.88;;
24451;SDS011;13350;50.984;5.822;2023-02-26T01:39:47;5.57;;;2.33;;
24451;SDS011;13350;50.984;5.822;2023-02-26T01:42:24;4.68;;;1.40;;
24451;SDS011;13350;50.984;5.822;2023-02-26T01:44:58;5.53;;;1.55;;
24451;SDS011;13350;50.984;5.822;2023-02-26T01:47:28;5.22;;;1.73;;
24451;SDS011;13350;50.984;5.822;2023-02-26T01:50:04;4.25;;;2.10;;
24451;SDS011;13350;50.984;5.822;2023-02-26T01:55:41;5.70;;;2.20;;
24451;SDS011;13350;50.984;5.822;2023-02-26T01:58:10;3.08;;;1.58;;
24451;SDS011;13350;50.984;5.822;2023-02-26T02:00:38;3.50;;;1.73;;
24451;SDS011;13350;50.984;5.822;2023-02-26T02:03:05;3.13;;;2.05;;
24451;SDS011;13350;50.984;5.822;2023-02-26T02:05:33;7.65;;;1.95;;
24451;SDS011;13350;50.984;5.822;2023-02-26T02:08:06;5.30;;;2.20;;
24451;SDS011;13350;50.984;5.822;2023-02-26T02:10:36;3.63;;;1.52;;
24451;SDS011;13350;50.984;5.822;2023-02-26T02:13:09;7.87;;;2.03;;
24451;SDS011;13350;50.984;5.822;2023-02-26T02:15:45;5.07;;;2.15;;
24451;SDS011;13350;50.984;5.822;2023-02-26T02:18:18;5.55;;;1.90;;
24451;SDS011;13350;50.984;5.822;2023-02-26T02:21:07;6.15;;;1.80;;
24451;SDS011;13350;50.984;5.822;2023-02-26T02:23:55;5.15;;;2.30;;
24451;SDS011;13350;50.984;5.822;2023-02-26T02:29:32;7.97;;;1.67;;
24451;SDS011;13350;50.984;5.822;2023-02-26T02:32:17;8.40;;;1.98;;
24451;SDS011;13350;50.984;5.822;2023-02-26T02:34:48;4.75;;;2.10;;
24451;SDS011;13350;50.984;5.822;2023-02-26T02:37:19;3.78;;;1.90;;
24451;SDS011;13350;50.984;5.822;2023-02-26T02:39:52;5.78;;;1.95;;
24451;SDS011;13350;50.984;5.822;2023-02-26T02:42:23;2.78;;;1.85;;
24451;SDS011;13350;50.984;5.822;2023-02-26T02:44:56;3.85;;;2.17;;
24451;SDS011;13350;50.984;5.822;2023-02-26T02:47:28;4.88;;;2.05;;
24451;SDS011;13350;50.984;5.822;2023-02-26T02:50:00;5.50;;;2.03;;
24451;SDS011;13350;50.984;5.822;2023-02-26T02:52:34;4.03;;;2.20;;
24451;SDS011;13350;50.984;5.822;2023-02-26T02:55:08;5.50;;;2.35;;
24451;SDS011;13350;50.984;5.822;2023-02-26T02:57:41;4.25;;;1.95;;
24451;SDS011;13350;50.984;5.822;2023-02-26T03:00:12;5.65;;;2.53;;
24451;SDS011;13350;50.984;5.822;2023-02-26T03:02:45;5.43;;;2.67;;
24451;SDS011;13350;50.984;5.822;2023-02-26T03:05:18;4.68;;;1.77;;
24451;SDS011;13350;50.984;5.822;2023-02-26T03:07:47;5.50;;;2.45;;
24451;SDS011;13350;50.984;5.822;2023-02-26T03:10:17;10.30;;;2.10;;
24451;SDS011;13350;50.984;5.822;2023-02-26T03:12:44;7.15;;;2.28;;
24451;SDS011;13350;50.984;5.822;2023-02-26T03:15:11;4.47;;;2.10;;
24451;SDS011;13350;50.984;5.822;2023-02-26T03:17:42;7.75;;;1.75;;
24451;SDS011;13350;50.984;5.822;2023-02-26T03:20:19;2.70;;;1.60;;
24451;SDS011;13350;50.984;5.822;2023-02-26T03:22:52;8.55;;;2.40;;
24451;SDS011;13350;50.984;5.822;2023-02-26T03:25:33;3.55;;;2.00;;
24451;SDS011;13350;50.984;5.822;2023-02-26T03:28:09;3.50;;;1.90;;
24451;SDS011;13350;50.984;5.822;2023-02-26T03:30:43;7.93;;;1.98;;
24451;SDS011;13350;50.984;5.822;2023-02-26T03:33:21;6.07;;;1.95;;
24451;SDS011;13350;50.984;5.822;2023-02-26T03:35:52;3.80;;;1.73;;
24451;SDS011;13350;50.984;5.822;2023-02-26T03:38:24;4.57;;;1.70;;
24451;SDS011;13350;50.984;5.822;2023-02-26T03:40:58;3.72;;;1.55;;
24451;SDS011;13350;50.984;5.822;2023-02-26T03:43:29;4.32;;;1.50;;
24451;SDS011;13350;50.984;5.822;2023-02-26T03:46:00;5.00;;;1.65;;
24451;SDS011;13350;50.984;5.822;2023-02-26T03:48:32;5.30;;;1.70;;
24451;SDS011;13350;50.984;5.822;2023-02-26T03:51:02;6.68;;;1.58;;
24451;SDS011;13350;50.984;5.822;2023-02-26T03:53:35;2.83;;;1.40;;
24451;SDS011;13350;50.984;5.822;2023-02-26T03:56:09;2.83;;;1.50;;
24451;SDS011;13350;50.984;5.822;2023-02-26T03:58:41;4.70;;;1.63;;
24451;SDS011;13350;50.984;5.822;2023-02-26T04:01:10;3.97;;;2.20;;
24451;SDS011;13350;50.984;5.822;2023-02-26T04:03:46;5.25;;;1.70;;
24451;SDS011;13350;50.984;5.822;2023-02-26T04:06:15;4.15;;;1.30;;
24451;SDS011;13350;50.984;5.822;2023-02-26T04:08:44;5.20;;;1.60;;
24451;SDS011;13350;50.984;5.822;2023-02-26T04:11:14;3.28;;;1.27;;
24451;SDS011;13350;50.984;5.822;2023-02-26T04:13:42;5.38;;;1.50;;
24451;SDS011;13350;50.984;5.822;2023-02-26T04:16:10;3.22;;;1.70;;
24451;SDS011;13350;50.984;5.822;2023-02-26T04:18:37;3.25;;;1.52;;
24451;SDS011;13350;50.984;5.822;2023-02-26T04:21:09;2.10;;;1.15;;
24451;SDS011;13350;50.984;5.822;2023-02-26T04:23:37;4.43;;;1.77;;
24451;SDS011;13350;50.984;5.822;2023-02-26T04:26:04;5.88;;;1.60;;
24451;SDS011;13350;50.984;5.822;2023-02-26T04:28:31;5.88;;;1.50;;
24451;SDS011;13350;50.984;5.822;2023-02-26T04:31:02;2.50;;;1.40;;
24451;SDS011;13350;50.984;5.822;2023-02-26T04:33:30;5.10;;;1.50;;
24451;SDS011;13350;50.984;5.822;2023-02-26T04:35:57;2.90;;;1.40;;
24451;SDS011;13350;50.984;5.822;2023-02-26T04:38:27;4.60;;;1.65;;
24451;SDS011;13350;50.984;5.822;2023-02-26T04:40:54;2.20;;;1.70;;
24451;SDS011;13350;50.984;5.822;2023-02-26T04:43:21;4.93;;;1.80;;
24451;SDS011;13350;50.984;5.822;2023-02-26T04:45:48;3.88;;;1.90;;
24451;SDS011;13350;50.984;5.822;2023-02-26T04:48:16;2.05;;;1.67;;
24451;SDS011;13350;50.984;5.822;2023-02-26T04:50:43;8.27;;;1.83;;
24451;SDS011;13350;50.984;5.822;2023-02-26T04:53:11;2.00;;;1.65;;
24451;SDS011;13350;50.984;5.822;2023-02-26T04:55:40;3.95;;;1.60;;
24451;SDS011;13350;50.984;5.822;2023-02-26T04:58:07;4.10;;;1.85;;
24451;SDS011;13350;50.984;5.822;2023-02-26T05:00:35;4.35;;;1.95;;
24451;SDS011;13350;50.984;5.822;2023-02-26T05:03:02;4.13;;;1.77;;
24451;SDS011;13350;50.984;5.822;2023-02-26T05:05:29;4.75;;;1.48;;
24451;SDS011;13350;50.984;5.822;2023-02-26T05:07:57;2.55;;;1.83;;
24451;SDS011;13350;50.984;5.822;2023-02-26T05:10:24;3.70;;;1.70;;
24451;SDS011;13350;50.984;5.822;2023-02-26T05:12:53;4.90;;;1.67;;
24451;SDS011;13350;50.984;5.822;2023-02-26T05:15:20;5.85;;;1.73;;
24451;SDS011;13350;50.984;5.822;2023-02-26T05:17:47;3.50;;;1.65;;
24451;SDS011;13350;50.984;5.822;2023-02-26T05:20:15;2.85;;;1.58;;
24451;SDS011;13350;50.984;5.822;2023-02-26T05:22:42;2.67;;;1.50;;
24451;SDS011;13350;50.984;5.822;2023-02-26T05:25:09;3.63;;;1.80;;
24451;SDS011;13350;50.984;5.822;2023-02-26T05:27:41;2.88;;;1.63;;
24451;SDS011;13350;50.984;5.822;2023-02-26T05:30:13;3.55;;;1.60;;
24451;SDS011;13350;50.984;5.822;2023-02-26T05:32:42;3.03;;;1.70;;
24451;SDS011;13350;50.984;5.822;2023-02-26T05:35:09;4.07;;;1.50;;
24451;SDS011;13350;50.984;5.822;2023-02-26T05:37:37;2.42;;;1.45;;
24451;SDS011;13350;50.984;5.822;2023-02-26T05:40:05;2.55;;;1.50;;
24451;SDS011;13350;50.984;5.822;2023-02-26T05:42:34;3.78;;;1.40;;
24451;SDS011;13350;50.984;5.822;2023-02-26T05:45:02;3.85;;;1.90;;
24451;SDS011;13350;50.984;5.822;2023-02-26T05:47:31;1.85;;;1.30;;
24451;SDS011;13350;50.984;5.822;2023-02-26T05:49:59;4.43;;;1.50;;
24451;SDS011;13350;50.984;5.822;2023-02-26T05:52:26;2.15;;;1.25;;
24451;SDS011;13350;50.984;5.822;2023-02-26T05:54:53;4.93;;;1.50;;
24451;SDS011;13350;50.984;5.822;2023-02-26T05:57:21;3.65;;;2.15;;
24451;SDS011;13350;50.984;5.822;2023-02-26T05:59:49;2.20;;;1.38;;
24451;SDS011;13350;50.984;5.822;2023-02-26T06:02:16;2.85;;;1.58;;
24451;SDS011;13350;50.984;5.822;2023-02-26T06:04:45;3.15;;;1.70;;
24451;SDS011;13350;50.984;5.822;2023-02-26T06:07:12;1.33;;;1.23;;
24451;SDS011;13350;50.984;5.822;2023-02-26T06:09:39;2.45;;;1.17;;
24451;SDS011;13350;50.984;5.822;2023-02-26T06:12:07;5.35;;;1.52;;
24451;SDS011;13350;50.984;5.822;2023-02-26T06:14:34;5.93;;;1.58;;
24451;SDS011;13350;50.984;5.822;2023-02-26T06:17:01;3.83;;;1.42;;
24451;SDS011;13350;50.984;5.822;2023-02-26T06:19:29;3.80;;;1.27;;
24451;SDS011;13350;50.984;5.822;2023-02-26T06:21:57;2.45;;;1.30;;
24451;SDS011;13350;50.984;5.822;2023-02-26T06:24:25;1.75;;;1.27;;
24451;SDS011;13350;50.984;5.822;2023-02-26T06:26:52;2.72;;;1.42;;
24451;SDS011;13350;50.984;5.822;2023-02-26T06:29:19;3.70;;;1.30;;
24451;SDS011;13350;50.984;5.822;2023-02-26T06:31:47;2.28;;;1.30;;
24451;SDS011;13350;50.984;5.822;2023-02-26T06:34:14;2.35;;;1.25;;
24451;SDS011;13350;50.984;5.822;2023-02-26T06:36:42;2.75;;;1.10;;
24451;SDS011;13350;50.984;5.822;2023-02-26T06:39:11;2.78;;;1.40;;
24451;SDS011;13350;50.984;5.822;2023-02-26T06:41:38;5.55;;;1.13;;
24451;SDS011;13350;50.984;5.822;2023-02-26T06:44:05;3.70;;;1.30;;
24451;SDS011;13350;50.984;5.822;2023-02-26T06:46:33;3.08;;;1.35;;
24451;SDS011;13350;50.984;5.822;2023-02-26T06:49:00;5.47;;;1.42;;
24451;SDS011;13350;50.984;5.822;2023-02-26T06:51:28;3.78;;;1.63;;
24451;SDS011;13350;50.984;5.822;2023-02-26T06:53:55;3.72;;;1.25;;
24451;SDS011;13350;50.984;5.822;2023-02-26T06:56:24;4.22;;;1.50;;
24451;SDS011;13350;50.984;5.822;2023-02-26T06:58:51;3.38;;;1.23;;
24451;SDS011;13350;50.984;5.822;2023-02-26T07:01:18;4.43;;;1.60;;
24451;SDS011;13350;50.984;5.822;2023-02-26T07:03:46;4.97;;;1.35;;
24451;SDS011;13350;50.984;5.822;2023-02-26T07:06:13;3.20;;;2.05;;
24451;SDS011;13350;50.984;5.822;2023-02-26T07:08:41;2.20;;;1.33;;
24451;SDS011;13350;50.984;5.822;2023-02-26T07:11:08;2.85;;;1.52;;
24451;SDS011;13350;50.984;5.822;2023-02-26T07:13:37;3.78;;;1.95;;
24451;SDS011;13350;50.984;5.822;2023-02-26T07:16:04;4.57;;;1.58;;
24451;SDS011;13350;50.984;5.822;2023-02-26T07:18:32;3.83;;;1.17;;
24451;SDS011;13350;50.984;5.822;2023-02-26T07:20:59;3.20;;;1.25;;
24451;SDS011;13350;50.984;5.822;2023-02-26T07:23:27;2.78;;;1.08;;
24451;SDS011;13350;50.984;5.822;2023-02-26T07:25:54;2.63;;;1.30;;
24451;SDS011;13350;50.984;5.822;2023-02-26T07:28:22;3.05;;;1.30;;
24451;SDS011;13350;50.984;5.822;2023-02-26T07:30:52;2.92;;;1.05;;
24451;SDS011;13350;50.984;5.822;2023-02-26T07:33:20;3.75;;;1.48;;
24451;SDS011;13350;50.984;5.822;2023-02-26T07:35:47;2.90;;;1.60;;
24451;SDS011;13350;50.984;5.822;2023-02-26T07:38:14;3.20;;;1.20;;
24451;SDS011;13350;50.984;5.822;2023-02-26T07:40:41;2.22;;;1.35;;
24451;SDS011;13350;50.984;5.822;2023-02-26T07:43:09;3.22;;;1.50;;
24451;SDS011;13350;50.984;5.822;2023-02-26T07:45:36;3.03;;;1.27;;
24451;SDS011;13350;50.984;5.822;2023-02-26T07:48:04;4.03;;;1.40;;
24451;SDS011;13350;50.984;5.822;2023-02-26T07:50:31;3.47;;;1.38;;
24451;SDS011;13350;50.984;5.822;2023-02-26T07:52:59;3.03;;;1.25;;
24451;SDS011;13350;50.984;5.822;2023-02-26T07:55:26;4.85;;;1.33;;
24451;SDS011;13350;50.984;5.822;2023-02-26T07:57:54;3.42;;;1.60;;
24451;SDS011;13350;50.984;5.822;2023-02-26T08:00:21;3.83;;;1.80;;
24451;SDS011;13350;50.984;5.822;2023-02-26T08:02:48;3.33;;;1.10;;
24451;SDS011;13350;50.984;5.822;2023-02-26T08:05:17;2.65;;;1.30;;
24451;SDS011;13350;50.984;5.822;2023-02-26T08:07:44;4.72;;;1.15;;
24451;SDS011;13350;50.984;5.822;2023-02-26T08:10:11;1.63;;;1.10;;
24451;SDS011;13350;50.984;5.822;2023-02-26T08:12:39;3.42;;;1.10;;
24451;SDS011;13350;50.984;5.822;2023-02-26T08:15:06;1.95;;;1.13;;
24451;SDS011;13350;50.984;5.822;2023-02-26T08:17:36;3.03;;;1.00;;
24451;SDS011;13350;50.984;5.822;2023-02-26T08:20:03;3.40;;;1.58;;
24451;SDS011;13350;50.984;5.822;2023-02-26T08:22:33;3.28;;;1.23;;
24451;SDS011;13350;50.984;5.822;2023-02-26T08:25:00;2.10;;;1.20;;
24451;SDS011;13350;50.984;5.822;2023-02-26T08:27:28;2.80;;;1.00;;
24451;SDS011;13350;50.984;5.822;2023-02-26T08:29:55;1.40;;;1.17;;
24451;SDS011;13350;50.984;5.822;2023-02-26T08:32:22;4.15;;;1.00;;
24451;SDS011;13350;50.984;5.822;2023-02-26T08:34:51;5.15;;;1.10;;
24451;SDS011;13350;50.984;5.822;2023-02-26T08:37:19;1.67;;;1.08;;
24451;SDS011;13350;50.984;5.822;2023-02-26T08:39:49;3.78;;;1.10;;
24451;SDS011;13350;50.984;5.822;2023-02-26T08:42:17;3.72;;;1.17;;
24451;SDS011;13350;50.984;5.822;2023-02-26T08:44:45;2.22;;;0.90;;
24451;SDS011;13350;50.984;5.822;2023-02-26T08:47:12;3.40;;;1.30;;
24451;SDS011;13350;50.984;5.822;2023-02-26T08:49:40;2.63;;;1.13;;
24451;SDS011;13350;50.984;5.822;2023-02-26T08:52:07;3.08;;;1.25;;
24451;SDS011;13350;50.984;5.822;2023-02-26T08:54:34;5.15;;;1.60;;
24451;SDS011;13350;50.984;5.822;2023-02-26T08:57:03;3.05;;;1.30;;
24451;SDS011;13350;50.984;5.822;2023-02-26T08:59:30;2.13;;;1.08;;
24451;SDS011;13350;50.984;5.822;2023-02-26T09:01:57;3.03;;;1.38;;
24451;SDS011;13350;50.984;5.822;2023-02-26T09:04:24;2.97;;;1.30;;
24451;SDS011;13350;50.984;5.822;2023-02-26T09:06:52;1.77;;;0.90;;
24451;SDS011;13350;50.984;5.822;2023-02-26T09:09:20;2.08;;;1.10;;
24451;SDS011;13350;50.984;5.822;2023-02-26T09:11:47;3.88;;;1.23;;
24451;SDS011;13350;50.984;5.822;2023-02-26T09:14:15;3.45;;;1.10;;
24451;SDS011;13350;50.984;5.822;2023-02-26T09:16:43;3.67;;;1.00;;
24451;SDS011;13350;50.984;5.822;2023-02-26T09:19:10;2.53;;;1.20;;
24451;SDS011;13350;50.984;5.822;2023-02-26T09:21:37;1.40;;;1.10;;
24451;SDS011;13350;50.984;5.822;2023-02-26T09:24:05;4.82;;;1.10;;
24451;SDS011;13350;50.984;5.822;2023-02-26T09:26:32;2.95;;;0.90;;
24451;SDS011;13350;50.984;5.822;2023-02-26T09:29:00;2.58;;;1.15;;
24451;SDS011;13350;50.984;5.822;2023-02-26T09:31:28;2.33;;;1.20;;
24451;SDS011;13350;50.984;5.822;2023-02-26T09:33:55;2.53;;;1.02;;
24451;SDS011;13350;50.984;5.822;2023-02-26T09:36:22;1.75;;;1.10;;
24451;SDS011;13350;50.984;5.822;2023-02-26T09:38:50;2.95;;;1.50;;
24451;SDS011;13350;50.984;5.822;2023-02-26T09:41:18;3.40;;;1.20;;
24451;SDS011;13350;50.984;5.822;2023-02-26T09:43:57;4.10;;;1.20;;
24451;SDS011;13350;50.984;5.822;2023-02-26T09:46:35;3.75;;;1.30;;
24451;SDS011;13350;50.984;5.822;2023-02-26T09:49:10;2.15;;;1.30;;
24451;SDS011;13350;50.984;5.822;2023-02-26T09:51:44;3.45;;;1.30;;
24451;SDS011;13350;50.984;5.822;2023-02-26T09:54:16;2.50;;;1.00;;
24451;SDS011;13350;50.984;5.822;2023-02-26T09:56:46;1.80;;;1.13;;
24451;SDS011;13350;50.984;5.822;2023-02-26T09:59:15;1.30;;;0.88;;
24451;SDS011;13350;50.984;5.822;2023-02-26T10:01:46;1.88;;;1.02;;
24451;SDS011;13350;50.984;5.822;2023-02-26T10:04:23;1.90;;;1.20;;
24451;SDS011;13350;50.984;5.822;2023-02-26T10:07:03;2.85;;;1.10;;
24451;SDS011;13350;50.984;5.822;2023-02-26T10:09:46;2.08;;;1.10;;
24451;SDS011;13350;50.984;5.822;2023-02-26T10:12:23;2.13;;;1.00;;
24451;SDS011;13350;50.984;5.822;2023-02-26T10:14:53;1.67;;;1.00;;
24451;SDS011;13350;50.984;5.822;2023-02-26T10:17:27;2.42;;;1.20;;
24451;SDS011;13350;50.984;5.822;2023-02-26T10:22:30;2.05;;;1.00;;
24451;SDS011;13350;50.984;5.822;2023-02-26T10:25:01;2.83;;;1.20;;
24451;SDS011;13350;50.984;5.822;2023-02-26T10:27:41;1.58;;;1.10;;
24451;SDS011;13350;50.984;5.822;2023-02-26T10:30:20;1.67;;;0.80;;
24451;SDS011;13350;50.984;5.822;2023-02-26T10:35:26;2.05;;;0.70;;
24451;SDS011;13350;50.984;5.822;2023-02-26T10:37:56;2.10;;;1.08;;
24451;SDS011;13350;50.984;5.822;2023-02-26T10:40:27;1.48;;;0.82;;
24451;SDS011;13350;50.984;5.822;2023-02-26T10:42:58;1.75;;;0.90;;
24451;SDS011;13350;50.984;5.822;2023-02-26T10:45:34;1.67;;;0.77;;
24451;SDS011;13350;50.984;5.822;2023-02-26T10:48:14;1.00;;;0.65;;
24451;SDS011;13350;50.984;5.822;2023-02-26T10:50:51;2.85;;;0.90;;
24451;SDS011;13350;50.984;5.822;2023-02-26T10:53:21;1.70;;;0.80;;
24451;SDS011;13350;50.984;5.822;2023-02-26T10:55:50;1.58;;;0.70;;
24451;SDS011;13350;50.984;5.822;2023-02-26T10:58:22;1.80;;;0.80;;
24451;SDS011;13350;50.984;5.822;2023-02-26T11:00:51;2.38;;;1.05;;
24451;SDS011;13350;50.984;5.822;2023-02-26T11:03:23;2.00;;;0.95;;
24451;SDS011;13350;50.984;5.822;2023-02-26T11:05:57;2.45;;;0.80;;
24451;SDS011;13350;50.984;5.822;2023-02-26T11:08:25;0.70;;;0.70;;
24451;SDS011;13350;50.984;5.822;2023-02-26T11:10:55;1.65;;;1.05;;
24451;SDS011;13350;50.984;5.822;2023-02-26T11:13:24;2.53;;;0.85;;
24451;SDS011;13350;50.984;5.822;2023-02-26T11:15:53;2.20;;;0.80;;
24451;SDS011;13350;50.984;5.822;2023-02-26T11:18:25;2.00;;;0.80;;
24451;SDS011;13350;50.984;5.822;2023-02-26T11:20:56;3.22;;;1.98;;
24451;SDS011;13350;50.984;5.822;2023-02-26T11:23:26;2.45;;;0.90;;
24451;SDS011;13350;50.984;5.822;2023-02-26T11:25:57;1.35;;;0.70;;
24451;SDS011;13350;50.984;5.822;2023-02-26T11:28:30;2.50;;;0.82;;
24451;SDS011;13350;50.984;5.822;2023-02-26T11:31:00;1.02;;;0.70;;
24451;SDS011;13350;50.984;5.822;2023-02-26T11:33:35;1.52;;;0.70;;
24451;SDS011;13350;50.984;5.822;2023-02-26T11:36:06;1.25;;;0.95;;
24451;SDS011;13350;50.984;5.822;2023-02-26T11:38:36;0.88;;;0.60;;
24451;SDS011;13350;50.984;5.822;2023-02-26T11:41:04;1.27;;;0.77;;
24451;SDS011;13350;50.984;5.822;2023-02-26T11:43:33;1.58;;;0.77;;
24451;SDS011;13350;50.984;5.822;2023-02-26T11:46:03;4.20;;;0.88;;
24451;SDS011;13350;50.984;5.822;2023-02-26T11:48:35;1.52;;;0.70;;
24451;SDS011;13350;50.984;5.822;2023-02-26T11:51:06;1.15;;;0.80;;
24451;SDS011;13350;50.984;5.822;2023-02-26T11:53:40;1.35;;;0.80;;
24451;SDS011;13350;50.984;5.822;2023-02-26T11:56:10;2.38;;;0.80;;
24451;SDS011;13350;50.984;5.822;2023-02-26T11:58:39;0.98;;;0.65;;
24451;SDS011;13350;50.984;5.822;2023-02-26T12:01:11;1.42;;;0.80;;
24451;SDS011;13350;50.984;5.822;2023-02-26T12:03:44;1.13;;;0.70;;
24451;SDS011;13350;50.984;5.822;2023-02-26T12:06:15;0.60;;;0.60;;
24451;SDS011;13350;50.984;5.822;2023-02-26T12:08:44;2.45;;;0.90;;
24451;SDS011;13350;50.984;5.822;2023-02-26T12:11:19;1.42;;;0.80;;
24451;SDS011;13350;50.984;5.822;2023-02-26T12:14:05;0.98;;;0.68;;
24451;SDS011;13350;50.984;5.822;2023-02-26T12:16:43;1.80;;;1.10;;
24451;SDS011;13350;50.984;5.822;2023-02-26T12:19:33;1.95;;;0.90;;
24451;SDS011;13350;50.984;5.822;2023-02-26T12:22:12;1.80;;;0.75;;
24451;SDS011;13350;50.984;5.822;2023-02-26T12:25:13;1.10;;;1.00;;
24451;SDS011;13350;50.984;5.822;2023-02-26T12:30:50;1.35;;;0.90;;
24451;SDS011;13350;50.984;5.822;2023-02-26T12:33:31;1.52;;;0.77;;
24451;SDS011;13350;50.984;5.822;2023-02-26T12:36:13;2.05;;;1.17;;
24451;SDS011;13350;50.984;5.822;2023-02-26T12:38:51;2.30;;;0.90;;
24451;SDS011;13350;50.984;5.822;2023-02-26T12:41:41;1.63;;;0.82;;
24451;SDS011;13350;50.984;5.822;2023-02-26T12:44:27;1.23;;;0.85;;
24451;SDS011;13350;50.984;5.822;2023-02-26T12:47:24;1.42;;;0.80;;
24451;SDS011;13350;50.984;5.822;2023-02-26T12:50:05;1.48;;;0.80;;
24451;SDS011;13350;50.984;5.822;2023-02-26T12:52:55;1.38;;;0.85;;
24451;SDS011;13350;50.984;5.822;2023-02-26T12:55:36;2.15;;;0.77;;
24451;SDS011;13350;50.984;5.822;2023-02-26T12:58:19;2.80;;;0.77;;
24451;SDS011;13350;50.984;5.822;2023-02-26T13:01:03;1.35;;;0.73;;
24451;SDS011;13350;50.984;5.822;2023-02-26T13:03:55;1.63;;;0.68;;
24451;SDS011;13350;50.984;5.822;2023-02-26T13:09:39;1.58;;;0.70;;
24451;SDS011;13350;50.984;5.822;2023-02-26T13:12:20;2.00;;;0.88;;
24451;SDS011;13350;50.984;5.822;2023-02-26T13:14:59;1.90;;;0.82;;
24451;SDS011;13350;50.984;5.822;2023-02-26T13:17:37;1.10;;;0.70;;
24451;SDS011;13350;50.984;5.822;2023-02-26T13:20:12;2.10;;;0.70;;
24451;SDS011;13350;50.984;5.822;2023-02-26T13:22:43;1.20;;;0.70;;
24451;SDS011;13350;50.984;5.822;2023-02-26T13:25:17;0.95;;;0.75;;
24451;SDS011;13350;50.984;5.822;2023-02-26T13:27:48;1.63;;;0.70;;
24451;SDS011;13350;50.984;5.822;2023-02-26T13:30:21;1.17;;;0.68;;
24451;SDS011;13350;50.984;5.822;2023-02-26T13:32:52;2.15;;;0.70;;
24451;SDS011;13350;50.984;5.822;2023-02-26T13:35:24;0.93;;;0.60;;
24451;SDS011;13350;50.984;5.822;2023-02-26T13:37:54;2.42;;;0.80;;
24451;SDS011;13350;50.984;5.822;2023-02-26T13:40:32;1.02;;;0.73;;
24451;SDS011;13350;50.984;5.822;2023-02-26T13:43:24;1.48;;;0.90;;
24451;SDS011;13350;50.984;5.822;2023-02-26T13:46:07;1.98;;;0.70;;
24451;SDS011;13350;50.984;5.822;2023-02-26T13:48:47;0.88;;;0.60;;
24451;SDS011;13350;50.984;5.822;2023-02-26T13:51:26;2.15;;;0.80;;
24451;SDS011;13350;50.984;5.822;2023-02-26T13:53:58;1.88;;;0.73;;
24451;SDS011;13350;50.984;5.822;2023-02-26T13:56:46;1.27;;;0.70;;
24451;SDS011;13350;50.984;5.822;2023-02-26T13:59:25;1.67;;;0.63;;
24451;SDS011;13350;50.984;5.822;2023-02-26T14:02:02;1.58;;;0.75;;
24451;SDS011;13350;50.984;5.822;2023-02-26T14:05:09;1.08;;;0.70;;
24451;SDS011;13350;50.984;5.822;2023-02-26T14:08:08;1.13;;;0.70;;
24451;SDS011;13350;50.984;5.822;2023-02-26T14:10:55;0.75;;;0.70;;
24451;SDS011;13350;50.984;5.822;2023-02-26T14:13:32;1.75;;;0.70;;
24451;SDS011;13350;50.984;5.822;2023-02-26T14:16:02;1.38;;;0.75;;
24451;SDS011;13350;50.984;5.822;2023-02-26T14:18:39;2.70;;;0.80;;
24451;SDS011;13350;50.984;5.822;2023-02-26T14:24:04;0.68;;;0.60;;
24451;SDS011;13350;50.984;5.822;2023-02-26T14:26:43;1.63;;;0.70;;
24451;SDS011;13350;50.984;5.822;2023-02-26T14:29:15;0.73;;;0.68;;
24451;SDS011;13350;50.984;5.822;2023-02-26T14:31:53;3.53;;;0.82;;
24451;SDS011;13350;50.984;5.822;2023-02-26T14:34:40;1.67;;;0.60;;
24451;SDS011;13350;50.984;5.822;2023-02-26T14:37:14;1.30;;;0.60;;
24451;SDS011;13350;50.984;5.822;2023-02-26T14:39:46;0.80;;;0.70;;
24451;SDS011;13350;50.984;5.822;2023-02-26T14:42:18;0.93;;;0.55;;
24451;SDS011;13350;50.984;5.822;2023-02-26T14:44:50;2.60;;;0.80;;
24451;SDS011;13350;50.984;5.822;2023-02-26T14:47:23;2.15;;;0.80;;
24451;SDS011;13350;50.984;5.822;2023-02-26T14:49:50;1.50;;;0.95;;
24451;SDS011;13350;50.984;5.822;2023-02-26T14:55:38;1.58;;;0.82;;
24451;SDS011;13350;50.984;5.822;2023-02-26T14:58:15;1.15;;;0.70;;
24451;SDS011;13350;50.984;5.822;2023-02-26T15:00:58;1.33;;;0.70;;
24451;SDS011;13350;50.984;5.822;2023-02-26T15:03:44;1.02;;;0.80;;
24451;SDS011;13350;50.984;5.822;2023-02-26T15:06:49;0.82;;;0.60;;
24451;SDS011;13350;50.984;5.822;2023-02-26T15:09:26;1.13;;;0.70;;
24451;SDS011;13350;50.984;5.822;2023-02-26T15:12:05;0.40;;;0.40;;
24451;SDS011;13350;50.984;5.822;2023-02-26T15:14:51;1.27;;;0.60;;
24451;SDS011;13350;50.984;5.822;2023-02-26T15:17:51;1.05;;;0.50;;
24451;SDS011;13350;50.984;5.822;2023-02-26T15:20:38;0.68;;;0.60;;
24451;SDS011;13350;50.984;5.822;2023-02-26T15:23:27;3.45;;;0.80;;
24451;SDS011;13350;50.984;5.822;2023-02-26T15:26:03;0.60;;;0.60;;
24451;SDS011;13350;50.984;5.822;2023-02-26T15:28:34;1.38;;;0.70;;
24451;SDS011;13350;50.984;5.822;2023-02-26T15:31:04;1.33;;;0.60;;
24451;SDS011;13350;50.984;5.822;2023-02-26T15:33:35;1.35;;;0.80;;
24451;SDS011;13350;50.984;5.822;2023-02-26T15:36:05;1.63;;;0.85;;
24451;SDS011;13350;50.984;5.822;2023-02-26T15:38:38;1.17;;;0.70;;
24451;SDS011;13350;50.984;5.822;2023-02-26T15:41:08;1.15;;;0.70;;